Time;durP1;ratioP1;P1;durP2;ratioP2;P2;SDS_P1;SDS_P2;PMS_P1;PMS_P2;Temp;Humidity;BMP_temperature;BMP_pressure;BME280_temperature;BME280_humidity;BME280_pressure;Samples;Min_cycle;Max_cycle;Signal;HPM_P1;HPM_P2
2022/07/23 00:02:43;;;;;;;;;22.00;21.00;;;;;29.37;42.93;98766.38;6091258;28;98185;-56
2022/07/23 00:05:47;;;;;;;;;26.00;23.40;;;;;29.36;42.34;98761.19;6092059;28;97141;-56
2022/07/23 00:08:52;;;;;;;;;26.40;24.00;;;;;29.35;42.44;98762.34;6091597;28;98243;-56
2022/07/23 00:11:56;;;;;;;;;25.60;23.00;;;;;29.35;42.78;98759.56;6078409;28;98081;-57
2022/07/23 00:15:00;;;;;;;;;26.00;23.60;;;;;29.33;42.92;98759.09;6091814;28;97460;-58
2022/07/23 00:18:03;;;;;;;;;23.75;22.75;;;;;29.28;42.96;98763.69;6091970;28;97452;-58
2022/07/23 00:21:07;;;;;;;;;21.80;20.80;;;;;29.24;42.95;98762.78;6091733;28;97052;-58
2022/07/23 00:24:12;;;;;;;;;24.50;21.50;;;;;29.18;43.50;98752.22;6091774;28;96962;-57
2022/07/23 00:27:16;;;;;;;;;21.00;20.00;;;;;29.14;43.80;98754.91;6091235;28;97479;-57
2022/07/23 00:30:19;;;;;;;;;22.00;20.00;;;;;29.09;44.29;98760.69;6091622;28;97133;-57
2022/07/23 00:33:23;;;;;;;;;25.00;23.00;;;;;29.06;43.45;98764.16;6091032;28;96627;-57
2022/07/23 00:36:26;;;;;;;;;23.25;22.25;;;;;29.02;43.69;98774.34;6091378;28;97530;-58
2022/07/23 00:39:31;;;;;;;;;22.60;21.00;;;;;29.00;43.94;98773.88;6091453;28;97472;-57
2022/07/23 00:42:34;;;;;;;;;24.60;23.00;;;;;28.98;43.28;98770.63;6106284;28;96827;-58
2022/07/23 00:45:38;;;;;;;;;25.00;23.00;;;;;28.95;43.72;98770.50;6091221;28;96852;-57
2022/07/23 00:48:41;;;;;;;;;24.00;23.00;;;;;28.93;43.57;98767.28;6106574;28;97659;-56
2022/07/23 00:51:45;;;;;;;;;25.60;24.40;;;;;28.90;43.60;98777.09;6091542;28;96463;-57
2022/07/23 00:54:50;;;;;;;;;24.40;23.40;;;;;28.86;43.83;98781.72;6090944;28;97506;-58
2022/07/23 00:57:55;;;;;;;;;23.00;22.00;;;;;28.83;43.85;98776.88;6089332;28;97608;-56
2022/07/23 01:00:58;;;;;;;;;25.60;23.00;;;;;28.82;43.93;98775.25;6091130;28;97087;-57
2022/07/23 01:04:03;;;;;;;;;30.00;25.80;;;;;28.79;43.77;98775.91;6090742;28;96901;-56
2022/07/23 01:07:06;;;;;;;;;22.00;21.00;;;;;28.81;42.77;98782.75;6105647;28;97511;-56
2022/07/23 01:13:29;;;;;;;;;21.60;20.20;;;;;28.79;42.46;98779.50;6105463;28;97470;-55
2022/07/23 01:16:35;;;;;;;;;24.00;22.00;;;;;28.71;42.35;98765.72;6105867;28;97395;-56
2022/07/23 01:19:38;;;;;;;;;22.00;20.50;;;;;28.81;42.27;98779.16;6089102;28;96867;-56
2022/07/23 01:22:44;;;;;;;;;23.60;22.60;;;;;28.79;42.18;98765.63;6088890;28;97109;-57
2022/07/23 01:25:49;;;;;;;;;31.00;25.50;;;;;28.82;42.23;98769.69;6106196;28;96876;-56
2022/07/23 01:28:52;;;;;;;;;25.80;24.80;;;;;28.81;42.66;98773.63;6105007;28;98243;-56
2022/07/23 01:31:56;;;;;;;;;23.80;21.80;;;;;28.81;42.49;98768.06;6089971;28;96913;-58
2022/07/23 01:34:59;;;;;;;;;21.20;20.20;;;;;28.79;42.54;98767.59;6105427;28;97500;-58
2022/07/23 01:38:04;;;;;;;;;24.00;23.00;;;;;28.59;43.02;98735.19;6090748;28;97533;-56
2022/07/23 01:41:10;;;;;;;;;24.20;22.60;;;;;28.76;42.53;98768.28;6088654;28;97169;-58
2022/07/23 01:44:16;;;;;;;;;22.80;20.60;;;;;28.74;42.92;98773.34;6089325;28;97572;-56
2022/07/23 01:47:20;;;;;;;;;25.00;23.00;;;;;28.72;42.84;98770.13;6087592;28;97404;-56
2022/07/23 01:50:27;;;;;;;;;23.50;23.50;;;;;28.69;42.92;98768.81;6089261;28;96585;-58
2022/07/23 01:53:49;;;;;;;;;23.60;22.00;;;;;28.66;42.82;98763.97;6089412;28;96623;-56
2022/07/23 01:56:53;;;;;;;;;24.25;24.00;;;;;28.62;43.08;98770.53;6088561;28;96873;-56
2022/07/23 01:59:56;;;;;;;;;23.20;21.60;;;;;28.59;43.27;98776.78;6087092;28;96542;-56
2022/07/23 02:03:01;;;;;;;;;23.60;21.60;;;;;28.55;43.50;98771.09;6087360;28;97645;-56
2022/07/23 02:06:04;;;;;;;;;25.00;23.40;;;;;28.53;43.24;98769.84;6105042;28;96407;-55
2022/07/23 02:09:09;;;;;;;;;24.40;23.00;;;;;28.51;43.31;98770.16;6088391;28;97422;-55
2022/07/23 02:12:12;;;;;;;;;32.40;27.60;;;;;28.46;43.38;98764.03;6088353;28;96785;-55
2022/07/23 02:15:15;;;;;;;;;28.75;28.00;;;;;28.45;43.42;98771.53;6088502;28;97426;-56
2022/07/23 02:18:19;;;;;;;;;28.60;28.00;;;;;28.40;43.65;98777.28;6104770;28;97043;-57
2022/07/23 02:21:23;;;;;;;;;26.00;25.00;;;;;28.36;43.82;98770.81;6089896;28;96484;-57
2022/07/23 02:24:30;;;;;;;;;24.40;23.60;;;;;28.33;43.63;98774.28;6088696;28;97032;-57
2022/07/23 02:27:34;;;;;;;;;27.80;25.00;;;;;28.29;43.96;98773.34;6089399;28;96899;-55
2022/07/23 02:30:40;;;;;;;;;30.00;30.00;;;;;28.28;44.11;98778.06;6088569;28;96967;-56
2022/07/23 02:33:44;;;;;;;;;30.60;29.00;;;;;28.25;44.24;98772.38;6088010;28;97438;-56
2022/07/23 02:36:47;;;;;;;;;27.40;25.00;;;;;28.22;43.87;98768.34;6080399;28;97194;-56
2022/07/23 02:39:52;;;;;;;;;28.00;24.40;;;;;28.19;44.03;98771.81;6088024;28;97416;-57
2022/07/23 02:42:55;;;;;;;;;31.00;29.50;;;;;28.19;44.34;98773.75;6087666;28;97667;-55
2022/07/23 02:46:00;;;;;;;;;29.50;28.50;;;;;28.17;44.27;98776.06;6088190;28;96630;-55
2022/07/23 02:49:04;;;;;;;;;28.25;25.25;;;;;28.15;43.96;98772.81;6088128;28;96762;-55
2022/07/23 02:52:10;;;;;;;;;26.60;26.00;;;;;28.12;44.39;98773.47;6088183;28;96879;-57
2022/07/23 02:55:15;;;;;;;;;27.00;26.60;;;;;27.98;43.96;98762.66;6087701;28;96996;-55
2022/07/23 02:58:18;;;;;;;;;22.75;21.25;;;;;27.88;44.24;98746.44;6090057;28;97050;-55
2022/07/23 03:01:22;;;;;;;;;27.20;25.40;;;;;28.02;44.06;98775.50;6091739;28;96613;-55
2022/07/23 03:04:26;;;;;;;;;25.00;22.20;;;;;28.03;44.33;98776.31;6091422;28;97486;-54
2022/07/23 03:07:31;;;;;;;;;22.00;22.00;;;;;27.86;44.31;98755.09;6091409;28;96940;-57
2022/07/23 03:10:36;;;;;;;;;27.00;24.75;;;;;27.98;44.48;98780.09;6105776;28;96558;-55
2022/07/23 03:13:40;;;;;;;;;28.60;26.60;;;;;27.99;44.51;98775.38;6089995;28;98513;-56
2022/07/23 03:16:44;;;;;;;;;25.40;25.00;;;;;27.98;44.52;98766.25;6085801;28;97463;-57
2022/07/23 03:19:47;;;;;;;;;26.00;25.40;;;;;27.99;44.29;98767.88;6092637;28;97053;-57
2022/07/23 03:22:51;;;;;;;;;22.60;22.00;;;;;28.00;44.53;98769.47;6098196;28;97223;-55
2022/07/23 03:25:56;;;;;;;;;23.00;22.00;;;;;28.01;44.58;98761.97;6099162;28;96906;-56
2022/07/23 03:29:01;;;;;;;;;26.00;24.00;;;;;28.01;44.53;98765.56;6092559;28;96521;-57
2022/07/23 03:32:06;;;;;;;;;24.00;23.00;;;;;28.06;44.43;98764.53;6091724;28;97279;-55
2022/07/23 03:35:09;;;;;;;;;28.00;26.00;;;;;28.08;44.43;98758.66;6091239;28;97067;-55
2022/07/23 03:38:20;;;;;;;;;24.00;23.80;;;;;27.84;44.06;98717.81;6090518;28;97810;-56
2022/07/23 03:41:27;;;;;;;;;21.60;21.00;;;;;28.13;44.03;98753.75;6091221;28;96920;-56
2022/07/23 03:44:31;;;;;;;;;27.50;26.50;;;;;28.14;44.01;98752.59;6089160;28;96983;-54
2022/07/23 03:47:34;;;;;;;;;20.00;20.00;;;;;28.19;44.27;98763.50;6090708;28;97402;-55
2022/07/23 03:50:37;;;;;;;;;31.00;27.60;;;;;28.16;43.94;98749.47;6089261;28;97552;-55
2022/07/23 03:53:41;;;;;;;;;23.33;23.00;;;;;28.29;43.82;98756.72;6089570;28;97398;-56
2022/07/23 03:56:46;;;;;;;;;28.00;27.00;;;;;28.34;43.72;98759.25;6090360;28;96879;-55
2022/07/23 03:59:49;;;;;;;;;21.40;20.40;;;;;28.37;43.79;98761.34;6091041;28;96999;-54
2022/07/23 04:02:53;;;;;;;;;26.25;24.75;;;;;28.43;43.73;98760.78;6091672;28;96648;-57
2022/07/23 04:05:56;;;;;;;;;28.00;25.00;;;;;28.48;43.86;98765.31;6092130;28;97547;-55
2022/07/23 04:09:00;;;;;;;;;26.75;26.00;;;;;28.54;43.66;98752.03;6089470;28;98245;-56
2022/07/23 04:12:07;;;;;;;;;27.60;26.60;;;;;28.59;43.88;98754.59;6090838;28;96884;-56
2022/07/23 04:15:11;;;;;;;;;28.00;26.00;;;;;28.66;43.37;98749.28;6092012;28;97517;-55
2022/07/23 04:18:17;;;;;;;;;23.75;22.00;;;;;28.72;43.69;98750.72;6091908;28;98063;-55
2022/07/23 04:21:31;;;;;;;;;23.60;22.60;;;;;28.80;43.16;98756.16;6105105;28;98375;-57
2022/07/23 04:24:35;;;;;;;;;23.60;23.00;;;;;28.89;43.44;98758.81;6106671;28;97469;-57
2022/07/23 04:27:39;;;;;;;;;23.40;22.00;;;;;28.97;42.97;98760.69;6082846;28;96612;-56
2022/07/23 04:30:43;;;;;;;;;22.60;21.20;;;;;29.06;42.78;98760.56;6088317;28;97411;-57
2022/07/23 04:33:48;;;;;;;;;25.25;25.00;;;;;29.13;42.95;98753.28;6090578;28;96985;-58
2022/07/23 04:36:51;;;;;;;;;20.00;20.00;;;;;29.21;42.73;98749.59;6092932;28;97631;-55
2022/07/23 04:39:55;;;;;;;;;22.00;21.00;;;;;29.28;42.69;98747.03;6106261;28;96854;-58
2022/07/23 04:43:02;;;;;;;;;22.00;20.00;;;;;29.40;42.18;98745.44;6106490;28;97118;-57
2022/07/23 04:46:10;;;;;;;;;22.00;20.00;;;;;29.51;42.08;98741.03;6105715;28;99222;-55
2022/07/23 04:49:20;;;;;;;;;24.60;23.00;;;;;29.58;41.93;98747.59;6117289;28;97161;-58
2022/07/23 04:52:24;;;;;;;;;20.60;19.60;;;;;29.69;41.21;98739.59;6106235;28;96567;-56
2022/07/23 04:55:28;;;;;;;;;21.40;21.00;;;;;29.77;41.31;98751.72;6106245;28;97209;-58
2022/07/23 04:58:32;;;;;;;;;23.60;22.00;;;;;29.86;41.72;98752.41;6092476;28;97410;-57
2022/07/23 05:01:36;;;;;;;;;23.00;22.00;;;;;29.95;41.75;98762.25;6091200;28;96390;-56
2022/07/23 05:04:39;;;;;;;;;22.00;21.00;;;;;30.04;41.09;98739.88;6089849;28;97584;-57
2022/07/23 05:07:44;;;;;;;;;22.75;20.75;;;;;30.14;41.30;98744.91;6089051;28;97362;-58
2022/07/23 05:10:47;;;;;;;;;25.00;23.00;;;;;30.26;40.88;98752.38;6105443;28;98268;-56
2022/07/23 05:13:52;;;;;;;;;20.60;18.60;;;;;30.36;40.23;98749.91;6105520;28;97462;-55
2022/07/23 05:16:56;;;;;;;;;23.60;23.20;;;;;30.45;40.32;98749.72;6105923;28;97531;-58
2022/07/23 05:20:02;;;;;;;;;27.20;25.20;;;;;30.55;40.24;98757.59;6089415;28;96576;-55
2022/07/23 05:23:06;;;;;;;;;19.40;18.00;;;;;30.64;40.58;98755.47;6078214;28;97404;-58
2022/07/23 05:26:09;;;;;;;;;24.00;23.00;;;;;30.73;40.21;98744.97;6089284;28;97032;-55
2022/07/23 05:29:14;;;;;;;;;21.00;20.00;;;;;30.82;39.77;98750.34;6105446;28;96509;-56
2022/07/23 05:32:18;;;;;;;;;26.00;24.00;;;;;30.88;39.53;98752.53;6089140;28;97546;-57
2022/07/23 05:35:29;;;;;;;;;22.40;21.40;;;;;30.94;39.71;98751.06;6104515;28;97442;-56
2022/07/23 05:38:59;;;;;;;;;23.00;22.00;;;;;31.03;39.46;98759.28;6087893;28;97443;-57
2022/07/23 05:42:05;;;;;;;;;20.00;18.75;;;;;31.09;39.35;98746.69;6089453;28;96864;-54
2022/07/23 05:45:11;;;;;;;;;22.00;20.00;;;;;31.19;39.21;98751.72;6088942;28;96988;-54
2022/07/23 05:48:17;;;;;;;;;23.00;22.00;;;;;31.27;39.63;98741.56;6088106;28;97084;-56
2022/07/23 05:51:39;;;;;;;;;23.60;21.60;;;;;31.33;39.64;98728.94;6080547;28;97346;-55
2022/07/23 05:54:43;;;;;;;;;23.00;22.00;;;;;31.37;39.85;98738.22;6086037;28;98148;-55
2022/07/23 05:57:46;;;;;;;;;23.00;21.25;;;;;31.39;39.63;98742.25;6104559;28;98105;-56
2022/07/23 06:00:51;;;;;;;;;26.00;24.00;;;;;31.44;39.41;98745.91;6089825;28;97488;-56
2022/07/23 06:03:54;;;;;;;;;24.75;23.75;;;;;31.50;39.41;98750.84;6089886;28;97438;-56
2022/07/23 06:07:02;;;;;;;;;22.60;21.00;;;;;31.60;39.52;98747.53;6088638;28;97457;-55
2022/07/23 06:10:07;;;;;;;;;22.20;22.00;;;;;31.75;39.59;98743.91;6088379;28;97035;-57
2022/07/23 06:13:11;;;;;;;;;24.40;23.00;;;;;31.91;38.80;98745.81;6087261;28;96915;-56
2022/07/23 06:16:16;;;;;;;;;21.60;20.00;;;;;32.04;38.18;98748.09;6104721;28;97440;-55
2022/07/23 06:19:21;;;;;;;;;21.00;20.40;;;;;32.14;37.90;98738.34;6087695;28;97321;-56
2022/07/23 06:22:25;;;;;;;;;23.00;22.00;;;;;32.22;36.60;98740.09;6103613;28;97458;-56
2022/07/23 06:25:29;;;;;;;;;24.50;23.00;;;;;32.35;37.20;98730.41;6089545;28;96994;-57
2022/07/23 06:28:32;;;;;;;;;24.00;23.00;;;;;32.46;37.04;98733.38;6088083;28;96806;-57
2022/07/23 06:31:37;;;;;;;;;19.40;18.40;;;;;32.58;36.64;98730.44;6088146;28;96316;-56
2022/07/23 06:34:41;;;;;;;;;23.75;22.75;;;;;32.73;36.86;98731.53;6093986;28;97602;-55
2022/07/23 06:37:50;;;;;;;;;23.00;21.20;;;;;32.86;36.59;98728.16;6086991;28;98885;-57
2022/07/23 06:40:54;;;;;;;;;22.80;21.20;;;;;32.94;35.93;98717.94;6091870;28;97100;-55
2022/07/23 06:43:57;;;;;;;;;23.25;22.00;;;;;33.08;35.93;98718.97;6087351;28;97191;-57
2022/07/23 06:47:04;;;;;;;;;24.00;23.80;;;;;33.21;35.39;98716.78;6091523;28;97294;-57
2022/07/23 06:50:08;;;;;;;;;24.00;22.00;;;;;33.35;36.08;98719.00;6092215;28;97232;-57
2022/07/23 06:53:11;;;;;;;;;23.00;21.00;;;;;33.46;35.88;98717.16;6091674;28;96818;-56
2022/07/23 06:56:17;;;;;;;;;22.00;21.20;;;;;33.57;35.81;98728.50;6092049;28;97494;-58
2022/07/23 06:59:20;;;;;;;;;25.50;23.50;;;;;33.66;35.13;98715.84;6092942;28;96630;-58
2022/07/23 07:02:25;;;;;;;;;24.00;24.00;;;;;33.82;35.21;98721.25;6092465;28;97440;-58
2022/07/23 07:05:30;;;;;;;;;20.00;19.00;;;;;33.91;34.57;98713.41;6092070;28;97421;-56
2022/07/23 07:08:33;;;;;;;;;22.00;21.00;;;;;34.04;34.53;98711.16;6091645;28;97569;-56
2022/07/23 07:11:37;;;;;;;;;21.00;21.00;;;;;34.14;34.50;98708.50;6092035;28;96774;-57
2022/07/23 07:14:40;;;;;;;;;23.40;21.00;;;;;34.22;34.50;98713.00;6091699;28;97237;-55
2022/07/23 07:17:45;;;;;;;;;22.75;21.75;;;;;34.31;34.17;98713.50;6091148;28;97335;-58
2022/07/23 07:20:50;;;;;;;;;22.00;22.00;;;;;34.47;35.52;98716.06;6090474;28;96993;-61
2022/07/23 07:23:54;;;;;;;;;22.50;20.50;;;;;34.64;34.36;98714.63;6089599;28;96625;-59
2022/07/23 07:26:57;;;;;;;;;22.60;22.00;;;;;34.76;34.33;98717.16;6083728;28;96692;-57
2022/07/23 07:30:00;;;;;;;;;21.00;20.00;;;;;34.87;34.97;98711.66;6071434;28;97306;-57
2022/07/23 07:33:05;;;;;;;;;21.20;19.20;;;;;34.98;34.05;98699.38;6068542;28;97536;-58
2022/07/23 07:36:09;;;;;;;;;24.00;22.00;;;;;35.05;33.68;98698.59;6070358;28;97550;-61
2022/07/23 07:39:17;;;;;;;;;21.80;20.00;;;;;35.16;34.04;98685.47;6084220;28;97349;-56
2022/07/23 07:42:21;;;;;;;;;23.20;22.00;;;;;35.32;34.33;98694.44;6072817;28;97376;-63
2022/07/23 07:45:25;;;;;;;;;24.80;21.80;;;;;35.51;33.99;98682.94;6084085;28;97101;-58
2022/07/23 07:48:30;;;;;;;;;23.40;22.00;;;;;35.73;33.85;98688.66;6079138;28;97638;-61
2022/07/23 07:51:33;;;;;;;;;22.00;21.25;;;;;35.93;33.49;98693.56;6087379;28;96874;-64
2022/07/23 07:54:38;;;;;;;;;24.60;22.60;;;;;35.96;33.35;98686.38;6086299;28;97606;-58
2022/07/23 07:57:42;;;;;;;;;24.00;23.20;;;;;36.24;33.26;98699.72;6089609;28;97227;-57
2022/07/23 08:00:51;;;;;;;;;23.40;21.40;;;;;36.41;31.67;98702.53;6091217;28;97033;-57
2022/07/23 08:03:56;;;;;;;;;22.60;22.00;;;;;36.56;32.45;98703.38;6089783;28;98705;-56
2022/07/23 08:06:59;;;;;;;;;25.00;24.00;;;;;36.72;32.50;98706.66;6087418;28;97260;-56
2022/07/23 08:10:03;;;;;;;;;22.50;22.00;;;;;36.90;32.31;98715.88;6092077;28;96732;-56
2022/07/23 08:13:07;;;;;;;;;23.60;22.60;;;;;37.07;31.45;98713.47;6090830;28;98462;-58
2022/07/23 08:16:11;;;;;;;;;23.60;21.00;;;;;37.16;30.97;98713.88;6089827;28;98433;-58
2022/07/23 08:19:16;;;;;;;;;23.80;23.40;;;;;37.30;31.52;98711.06;6091539;28;96964;-62
2022/07/23 08:22:20;;;;;;;;;25.00;23.60;;;;;37.47;31.39;98712.25;6086876;28;97487;-59
2022/07/23 08:25:25;;;;;;;;;23.40;21.00;;;;;37.63;31.40;98716.22;6089579;28;97398;-57
2022/07/23 08:28:28;;;;;;;;;22.00;20.60;;;;;37.78;29.46;98721.84;6091031;28;97155;-57
2022/07/23 08:31:32;;;;;;;;;22.00;22.00;;;;;37.96;30.33;98723.38;6090746;28;97469;-62
2022/07/23 08:34:37;;;;;;;;;20.80;19.20;;;;;38.11;30.23;98718.50;6088932;28;97645;-58
2022/07/23 08:37:46;;;;;;;;;22.20;20.20;;;;;38.32;30.60;98718.38;6087175;28;97372;-57
2022/07/23 08:40:52;;;;;;;;;23.40;22.00;;;;;38.51;29.58;98715.06;6090616;28;98214;-58
2022/07/23 08:43:56;;;;;;;;;22.60;21.20;;;;;38.71;29.37;98720.97;6091383;28;96928;-62
2022/07/23 08:47:00;;;;;;;;;21.00;21.00;;;;;38.88;29.19;98711.63;6091621;28;98337;-61
2022/07/23 08:50:07;;;;;;;;;23.20;20.80;;;;;39.00;28.78;98707.47;6091284;28;97479;-61
2022/07/23 08:53:11;;;;;;;;;22.50;21.25;;;;;39.15;29.32;98706.16;6091077;28;96533;-60
2022/07/23 08:56:17;;;;;;;;;19.00;18.00;;;;;39.25;27.89;98701.63;6090002;28;97419;-58
2022/07/23 08:59:21;;;;;;;;;19.50;18.00;;;;;39.28;27.13;98690.31;6090929;28;97433;-58
2022/07/23 09:02:24;;;;;;;;;24.00;22.00;;;;;39.31;26.99;98680.22;6089166;28;98072;-60
2022/07/23 09:05:29;;;;;;;;;20.40;20.00;;;;;39.40;27.24;98674.91;6089335;28;97169;-58
2022/07/23 09:08:37;;;;;;;;;20.00;19.00;;;;;39.39;26.08;98668.47;6089248;28;97930;-59
2022/07/23 09:11:47;;;;;;;;;20.00;19.40;;;;;39.41;26.38;98668.03;6090838;28;97140;-58
2022/07/23 09:14:55;;;;;;;;;18.60;18.00;;;;;39.34;26.82;98643.53;6091359;28;96605;-59
2022/07/23 09:17:58;;;;;;;;;20.00;19.00;;;;;39.67;27.73;98670.19;6091635;28;96963;-61
2022/07/23 09:21:15;;;;;;;;;19.00;18.50;;;;;39.86;26.11;98679.25;6089532;28;97634;-60
2022/07/23 09:24:20;;;;;;;;;20.80;20.80;;;;;39.92;25.00;98669.09;6090430;28;96631;-65
2022/07/23 09:27:44;;;;;;;;;23.00;22.00;;;;;39.94;24.98;98675.91;6087824;28;98125;-59
2022/07/23 09:30:54;;;;;;;;;24.00;22.00;;;;;39.90;24.20;98677.16;6087986;28;96837;-61
2022/07/23 09:34:08;;;;;;;;;18.00;18.00;;;;;40.03;25.68;98681.81;6087068;28;97394;-63
2022/07/23 09:37:15;;;;;;;;;18.00;18.00;;;;;40.25;25.74;98688.03;6084416;28;98094;-61
2022/07/23 09:40:18;;;;;;;;;18.00;17.00;;;;;40.47;25.19;98686.47;6086528;28;97498;-60
2022/07/23 09:43:28;;;;;;;;;18.00;17.00;;;;;40.66;23.64;98668.06;6088798;28;96721;-62
2022/07/23 09:46:39;;;;;;;;;17.40;17.40;;;;;40.81;23.84;98666.56;6086756;28;97525;-62
2022/07/23 09:49:59;;;;;;;;;20.00;20.00;;;;;40.93;24.04;98656.69;6088983;28;97452;-58
2022/07/23 09:53:04;;;;;;;;;18.00;17.00;;;;;41.05;24.09;98656.88;6088027;28;96693;-60
2022/07/23 09:56:09;;;;;;;;;18.00;17.00;;;;;41.13;23.43;98657.56;6086720;28;98054;-62
2022/07/23 09:59:12;;;;;;;;;19.00;17.00;;;;;41.20;23.09;98653.81;6086992;28;97412;-60
2022/07/23 10:02:16;;;;;;;;;19.20;18.00;;;;;41.19;22.82;98652.22;6075664;28;97441;-58
2022/07/23 10:05:50;;;;;;;;;18.20;18.20;;;;;41.05;23.42;98642.75;6082046;28;96498;-60
2022/07/23 10:09:19;;;;;;;;;18.80;17.80;;;;;41.06;23.36;98643.56;6079292;28;98560;-62
2022/07/23 10:16:09;;;;;;;;;17.60;17.40;;;;;41.03;22.21;98645.22;6067031;28;97161;-55
2022/07/23 10:19:13;;;;;;;;;17.00;16.00;;;;;41.04;22.00;98641.16;6070858;28;97514;-59
2022/07/23 10:22:22;;;;;;;;;16.25;16.00;;;;;41.15;23.02;98638.16;6070075;28;97480;-58
2022/07/23 10:25:34;;;;;;;;;19.00;19.00;;;;;41.24;22.07;98634.75;6069587;28;97330;-59
2022/07/23 10:29:03;;;;;;;;;18.00;16.00;;;;;41.33;22.13;98632.16;6075492;28;97520;-63
2022/07/23 10:32:17;;;;;;;;;18.00;17.00;;;;;41.51;22.86;98638.28;6068222;28;97696;-61
2022/07/23 10:35:30;;;;;;;;;17.00;17.00;;;;;41.64;21.72;98635.59;6070064;28;97538;-60
2022/07/23 10:38:44;;;;;;;;;17.00;16.00;;;;;41.81;21.55;98638.03;6069033;28;97408;-58
2022/07/23 10:41:49;;;;;;;;;17.00;16.40;;;;;41.99;20.95;98625.53;6067556;28;96821;-61
2022/07/23 10:44:51;;;;;;;;;18.00;16.00;;;;;42.14;21.48;98624.78;6067678;28;97706;-58
2022/07/23 10:47:55;;;;;;;;;16.00;16.00;;;;;42.34;21.53;98628.38;6066286;28;96573;-62
2022/07/23 10:51:10;;;;;;;;;18.00;16.20;;;;;42.57;21.04;98624.59;6068914;28;96996;-57
2022/07/23 10:54:22;;;;;;;;;15.80;13.80;;;;;42.71;20.19;98612.16;6076722;28;98038;-58
2022/07/23 10:57:28;;;;;;;;;16.00;15.00;;;;;42.62;19.80;98592.88;6066020;28;97416;-58
2022/07/23 11:00:33;;;;;;;;;16.00;16.00;;;;;42.86;20.93;98612.56;6075018;28;97427;-60
2022/07/23 11:03:37;;;;;;;;;15.00;15.00;;;;;42.98;19.58;98611.81;6069549;28;97340;-62
2022/07/23 11:07:11;;;;;;;;;13.80;13.80;;;;;43.03;19.99;98599.94;6066081;28;97025;-61
2022/07/23 11:10:34;;;;;;;;;18.00;17.00;;;;;43.05;19.71;98600.31;6068678;28;97002;-62
2022/07/23 11:13:46;;;;;;;;;14.60;14.00;;;;;42.91;17.83;98601.47;6064424;28;96583;-62
2022/07/23 11:16:56;;;;;;;;;14.00;14.00;;;;;42.85;17.82;98600.44;6068693;28;96944;-58
2022/07/23 11:20:20;;;;;;;;;13.00;13.00;;;;;42.89;17.85;98595.44;6071141;28;97830;-58
2022/07/23 11:23:44;;;;;;;;;14.60;13.60;;;;;42.96;17.92;98598.09;6070195;28;97342;-60
2022/07/23 11:26:53;;;;;;;;;15.60;14.60;;;;;43.00;17.93;98598.00;6073096;28;96491;-58
2022/07/23 11:29:57;;;;;;;;;15.00;14.80;;;;;43.02;17.48;98598.34;6069794;28;97476;-59
2022/07/23 11:33:18;;;;;;;;;14.40;14.00;;;;;43.15;19.48;98590.72;6072030;28;98009;-58
2022/07/23 11:36:21;;;;;;;;;18.00;17.00;;;;;43.31;18.67;98584.19;6073109;28;96961;-60
2022/07/23 11:39:27;;;;;;;;;15.40;15.00;;;;;43.41;18.64;98578.22;6086468;28;97828;-58
2022/07/23 11:42:30;;;;;;;;;15.60;15.40;;;;;43.53;18.46;98580.31;6074332;28;97546;-59
2022/07/23 11:45:39;;;;;;;;;16.00;15.00;;;;;43.58;17.96;98582.59;6078642;28;96772;-57
2022/07/23 11:48:42;;;;;;;;;16.00;16.00;;;;;43.68;18.38;98574.22;6079593;28;97447;-58
2022/07/23 11:51:46;;;;;;;;;17.00;15.60;;;;;43.74;18.08;98558.22;6075861;28;97555;-60
2022/07/23 11:54:51;;;;;;;;;16.00;15.40;;;;;43.72;17.73;98557.88;6090638;28;96765;-57
2022/07/23 11:57:56;;;;;;;;;15.00;13.00;;;;;43.65;17.31;98560.91;6091449;28;96939;-61
2022/07/23 12:01:03;;;;;;;;;16.60;16.00;;;;;43.56;17.42;98550.22;6091987;28;96518;-60
2022/07/23 12:04:08;;;;;;;;;18.00;16.20;;;;;43.53;17.98;98553.97;6091000;28;97009;-57
2022/07/23 12:07:32;;;;;;;;;17.40;15.00;;;;;43.52;18.06;98541.81;6089898;28;97783;-57
2022/07/23 12:10:38;;;;;;;;;20.40;20.00;;;;;43.50;17.00;98543.50;6076461;28;97079;-59
2022/07/23 12:13:42;;;;;;;;;15.40;15.40;;;;;43.54;17.92;98536.50;6072713;28;97506;-57
2022/07/23 12:16:46;;;;;;;;;15.40;14.40;;;;;43.57;17.42;98535.59;6083613;28;97458;-58
2022/07/23 12:19:51;;;;;;;;;18.00;17.00;;;;;43.61;17.82;98527.75;6083218;28;97428;-60
2022/07/23 12:22:57;;;;;;;;;15.00;14.00;;;;;43.63;17.20;98515.16;6082328;28;97992;-59
2022/07/23 12:26:03;;;;;;;;;15.00;15.00;;;;;43.58;17.12;98517.31;6076786;28;97421;-58
2022/07/23 12:29:06;;;;;;;;;16.00;15.00;;;;;43.53;17.51;98512.19;6082514;28;97484;-56
2022/07/23 12:32:21;;;;;;;;;15.00;14.40;;;;;43.51;18.20;98513.88;6091159;28;97379;-58
2022/07/23 12:35:32;;;;;;;;;17.00;16.00;;;;;43.48;18.09;98520.47;6105207;28;97896;-58
2022/07/23 12:38:39;;;;;;;;;15.00;15.00;;;;;43.46;18.00;98511.56;6090023;28;98632;-57
2022/07/23 12:41:52;;;;;;;;;15.80;15.80;;;;;43.46;17.78;98497.38;6091457;28;96963;-61
2022/07/23 12:45:11;;;;;;;;;14.00;13.00;;;;;43.44;18.69;98497.06;6091097;28;97699;-60
2022/07/23 12:48:25;;;;;;;;;14.67;14.67;;;;;43.45;18.08;98490.91;6091983;28;96787;-59
2022/07/23 12:51:32;;;;;;;;;16.00;15.20;;;;;43.48;17.69;98492.88;6089651;28;97540;-58
2022/07/23 12:54:35;;;;;;;;;17.00;17.00;;;;;43.49;18.09;98493.69;6091428;28;96828;-60
2022/07/23 12:57:47;;;;;;;;;18.00;17.00;;;;;43.48;17.76;98492.09;6091652;28;96722;-56
2022/07/23 13:01:00;;;;;;;;;17.00;17.00;;;;;43.39;17.40;98483.41;6091725;28;98061;-57
2022/07/23 13:04:10;;;;;;;;;17.00;16.00;;;;;43.34;17.97;98484.78;6090951;28;97364;-56
2022/07/23 13:07:16;;;;;;;;;16.20;16.20;;;;;43.21;17.60;98472.59;6079085;28;98014;-54
2022/07/23 13:10:19;;;;;;;;;16.00;16.00;;;;;43.16;18.19;98475.97;6081238;28;97196;-54
2022/07/23 13:13:27;;;;;;;;;17.00;16.20;;;;;42.96;18.32;98447.00;6090484;28;98392;-57
2022/07/23 13:16:33;;;;;;;;;17.40;16.00;;;;;43.06;18.43;98463.69;6091203;28;97562;-60
2022/07/23 13:19:39;;;;;;;;;16.67;16.00;;;;;42.98;18.12;98464.34;6091400;28;97208;-61
2022/07/23 13:22:42;;;;;;;;;14.00;14.00;;;;;42.91;18.56;98459.66;6091072;28;96404;-59
2022/07/23 13:25:46;;;;;;;;;15.75;15.00;;;;;42.87;18.60;98458.97;6090134;28;97305;-64
2022/07/23 13:28:50;;;;;;;;;16.75;16.00;;;;;42.82;18.92;98459.53;6088002;28;97665;-59
2022/07/23 13:31:53;;;;;;;;;20.00;19.00;;;;;42.81;18.32;98460.00;6089667;28;96451;-63
2022/07/23 13:35:00;;;;;;;;;15.00;14.00;;;;;42.77;18.51;98454.41;6089440;28;97379;-63
2022/07/23 13:38:04;;;;;;;;;19.00;18.25;;;;;42.71;18.61;98448.50;6090660;28;97505;-55
2022/07/23 13:41:09;;;;;;;;;15.00;15.00;;;;;42.64;19.20;98445.81;6090432;28;96812;-58
2022/07/23 13:44:14;;;;;;;;;18.00;17.00;;;;;42.56;19.02;98444.44;6090061;28;96650;-59
2022/07/23 13:47:18;;;;;;;;;17.00;16.00;;;;;42.46;19.25;98439.88;6082755;28;97533;-59
2022/07/23 13:50:23;;;;;;;;;19.50;17.50;;;;;42.33;18.95;98439.78;6089351;28;98233;-57
2022/07/23 13:53:29;;;;;;;;;17.00;16.00;;;;;42.16;19.19;98434.56;6089655;28;97002;-58
2022/07/23 13:56:33;;;;;;;;;18.75;17.00;;;;;41.99;19.25;98432.97;6090313;28;97513;-57
2022/07/23 13:59:36;;;;;;;;;18.00;17.20;;;;;41.91;19.84;98424.66;6090072;28;97758;-58
2022/07/23 14:02:43;;;;;;;;;18.00;18.00;;;;;41.90;20.23;98433.59;6089572;28;96690;-60
2022/07/23 14:05:49;;;;;;;;;18.00;17.00;;;;;41.86;20.08;98430.88;6088561;28;98006;-58
2022/07/23 14:08:54;;;;;;;;;17.50;17.50;;;;;41.84;19.89;98416.31;6089998;28;96578;-59
2022/07/23 14:11:57;;;;;;;;;18.00;18.00;;;;;41.78;19.75;98415.28;6089321;28;97581;-59
2022/07/23 14:15:01;;;;;;;;;18.00;17.80;;;;;41.69;20.03;98400.91;6090230;28;96570;-57
2022/07/23 14:18:04;;;;;;;;;16.80;16.20;;;;;41.60;20.12;98394.28;6090083;28;96787;-57
2022/07/23 14:21:09;;;;;;;;;16.40;16.00;;;;;41.48;20.82;98388.09;6089673;28;96541;-57
2022/07/23 14:24:12;;;;;;;;;18.00;16.00;;;;;41.37;20.36;98381.06;6089607;28;97610;-58